Time;durP1;ratioP1;P1;durP2;ratioP2;P2;SDS_P1;SDS_P2;PMS_P1;PMS_P2;Temp;Humidity;BMP_temperature;BMP_pressure;BME280_temperature;BME280_humidity;BME280_pressure;Samples;Min_cycle;Max_cycle;Signal;HPM_P1;HPM_P2
2023/03/30 00:00:38;;;;;;;2.47;1.10;;;17.40;99.90;;;;;;5096336;28;20181;-80
2023/03/30 00:03:04;;;;;;;2.22;1.17;;;17.30;99.90;;;;;;5075005;28;20211;-80
2023/03/30 00:05:30;;;;;;;2.50;1.30;;;17.30;99.90;;;;;;5067140;28;20243;-77
2023/03/30 00:07:56;;;;;;;4.32;1.23;;;17.30;99.90;;;;;;5055467;28;20177;-76
2023/03/30 00:10:22;;;;;;;2.55;1.48;;;17.30;99.90;;;;;;5055617;28;20218;-80
2023/03/30 00:12:54;;;;;;;2.70;1.20;;;17.30;99.90;;;;;;5055422;28;20201;-75
2023/03/30 00:15:22;;;;;;;2.45;1.23;;;17.30;99.90;;;;;;5090866;28;20166;-75
2023/03/30 00:17:50;;;;;;;3.55;1.50;;;17.30;99.90;;;;;;5075858;28;20169;-79
2023/03/30 00:20:18;;;;;;;3.65;1.38;;;17.30;99.90;;;;;;5080034;28;20187;-79
2023/03/30 00:22:46;;;;;;;4.70;1.25;;;17.30;99.90;;;;;;5096095;28;20171;-80
2023/03/30 00:25:15;;;;;;;9.00;1.55;;;17.30;99.90;;;;;;5081743;28;20201;-79
2023/03/30 00:27:41;;;;;;;2.30;1.40;;;17.30;99.90;;;;;;5075630;28;20231;-79
2023/03/30 00:30:11;;;;;;;2.95;1.25;;;17.30;99.90;;;;;;5075380;28;20185;-79
2023/03/30 00:32:37;;;;;;;3.38;1.33;;;17.30;99.90;;;;;;5075419;28;20200;-78
2023/03/30 00:35:04;;;;;;;3.03;1.15;;;17.30;99.90;;;;;;5075430;28;20259;-79
2023/03/30 00:37:29;;;;;;;1.92;1.10;;;17.20;99.90;;;;;;5074627;28;20180;-80
2023/03/30 00:39:55;;;;;;;3.13;1.17;;;17.20;99.90;;;;;;5073094;28;20197;-79
2023/03/30 00:42:21;;;;;;;3.38;1.20;;;17.20;99.90;;;;;;5061082;28;20177;-79
2023/03/30 00:45:20;;;;;;;2.40;1.17;;;17.10;99.90;;;;;;5055025;28;20184;-78
2023/03/30 00:47:55;;;;;;;1.92;0.95;;;17.10;99.90;;;;;;5049578;28;20232;-79
2023/03/30 00:50:28;;;;;;;1.27;0.93;;;17.10;99.90;;;;;;5099152;28;20250;-76
2023/03/30 00:52:59;;;;;;;3.38;1.20;;;17.00;99.90;;;;;;5062600;28;20562;-80
2023/03/30 00:55:29;;;;;;;3.00;1.40;;;17.00;99.90;;;;;;5071867;28;20174;-80
2023/03/30 00:57:59;;;;;;;3.60;1.30;;;16.90;99.90;;;;;;5068007;28;20177;-80
2023/03/30 01:00:24;;;;;;;2.17;1.05;;;16.90;99.90;;;;;;5071181;28;20197;-78
2023/03/30 01:02:57;;;;;;;1.88;1.00;;;16.80;99.90;;;;;;5054881;28;20173;-79
2023/03/30 01:05:27;;;;;;;4.72;1.30;;;16.80;99.90;;;;;;5060334;28;20264;-79
2023/03/30 01:07:57;;;;;;;3.33;1.30;;;16.80;99.90;;;;;;5063968;28;20197;-79
2023/03/30 01:10:23;;;;;;;2.22;1.20;;;16.70;99.90;;;;;;5055053;28;20189;-78
2023/03/30 01:12:49;;;;;;;3.75;1.27;;;16.70;99.90;;;;;;5054638;28;20211;-78
2023/03/30 01:15:18;;;;;;;2.58;1.33;;;16.70;99.90;;;;;;5060211;28;20177;-80
2023/03/30 01:18:09;;;;;;;3.30;1.30;;;16.70;99.90;;;;;;5060169;28;20346;-81
2023/03/30 01:21:06;;;;;;;5.55;1.45;;;16.70;99.90;;;;;;5086381;28;20177;-77
2023/03/30 01:23:47;;;;;;;3.25;1.40;;;16.70;99.90;;;;;;5071331;28;20318;-79
2023/03/30 01:26:45;;;;;;;3.03;1.40;;;16.80;99.90;;;;;;5055134;28;20231;-79
2023/03/30 01:29:19;;;;;;;3.35;1.13;;;16.80;99.90;;;;;;5103832;28;20212;-80
2023/03/30 01:32:28;;;;;;;4.60;1.40;;;16.80;99.90;;;;;;5073690;28;20180;-77
2023/03/30 01:35:33;;;;;;;3.97;1.30;;;16.80;99.90;;;;;;5067239;28;20284;-76
2023/03/30 01:38:30;;;;;;;3.70;1.75;;;16.90;99.90;;;;;;5095703;28;20177;-76
2023/03/30 01:41:30;;;;;;;3.95;1.65;;;16.90;99.90;;;;;;5056335;28;20174;-80
2023/03/30 01:44:05;;;;;;;2.15;1.25;;;17.00;99.90;;;;;;5074550;28;20203;-80
2023/03/30 01:46:39;;;;;;;4.65;1.33;;;17.10;99.90;;;;;;5071537;28;20169;-80
2023/03/30 01:49:16;;;;;;;3.85;1.40;;;17.10;99.90;;;;;;5087721;28;20243;-80
2023/03/30 01:51:53;;;;;;;2.45;1.50;;;17.10;99.90;;;;;;5063506;28;20218;-79
2023/03/30 01:54:27;;;;;;;5.03;1.48;;;17.20;99.90;;;;;;5071248;28;20294;-78
2023/03/30 01:57:26;;;;;;;3.10;1.27;;;17.10;99.90;;;;;;5059009;28;20196;-78
2023/03/30 02:00:09;;;;;;;3.88;1.30;;;17.20;99.90;;;;;;5065576;28;20199;-81
2023/03/30 02:02:35;;;;;;;4.13;1.70;;;17.20;99.90;;;;;;5078722;28;20275;-81
2023/03/30 02:05:05;;;;;;;3.92;1.75;;;17.30;99.90;;;;;;5078977;28;20200;-76
2023/03/30 02:07:33;;;;;;;3.75;1.42;;;17.30;99.90;;;;;;5062861;28;20177;-79
2023/03/30 02:10:04;;;;;;;3.83;1.35;;;17.40;99.90;;;;;;5092022;28;20197;-79
2023/03/30 02:12:34;;;;;;;2.55;1.60;;;17.40;99.90;;;;;;5058479;28;20169;-79
2023/03/30 02:15:09;;;;;;;4.70;1.70;;;17.50;99.90;;;;;;5058297;28;20170;-79
2023/03/30 02:17:36;;;;;;;6.60;1.65;;;17.60;99.90;;;;;;5059067;28;20204;-80
2023/03/30 02:20:07;;;;;;;5.13;1.58;;;17.70;99.90;;;;;;5075997;28;20187;-77
2023/03/30 02:22:33;;;;;;;5.75;1.40;;;17.70;99.90;;;;;;5067591;28;20255;-77
2023/03/30 02:24:59;;;;;;;4.13;1.50;;;17.80;99.90;;;;;;5071065;28;20283;-75
2023/03/30 02:27:26;;;;;;;4.50;1.90;;;17.80;99.90;;;;;;5074341;28;20173;-79
2023/03/30 02:29:55;;;;;;;3.22;1.63;;;17.90;99.90;;;;;;5092578;28;20185;-77
2023/03/30 02:32:38;;;;;;;4.10;1.80;;;17.90;99.90;;;;;;5077409;28;20500;-80
2023/03/30 02:35:28;;;;;;;5.63;2.00;;;17.90;99.90;;;;;;5069871;28;20172;-80
2023/03/30 02:38:17;;;;;;;5.80;1.90;;;18.00;99.90;;;;;;5068140;28;20188;-80
2023/03/30 02:40:52;;;;;;;4.90;1.85;;;18.00;99.90;;;;;;5075286;28;20177;-80
2023/03/30 02:43:39;;;;;;;4.15;1.65;;;18.00;99.90;;;;;;5074216;28;20168;-80
2023/03/30 02:46:28;;;;;;;3.28;1.50;;;18.00;99.90;;;;;;5074672;28;20173;-70
2023/03/30 02:49:12;;;;;;;4.20;1.95;;;18.00;99.90;;;;;;5096489;28;20262;-78
2023/03/30 02:51:45;;;;;;;2.63;1.63;;;18.00;99.90;;;;;;5068423;28;20196;-79
2023/03/30 02:54:29;;;;;;;6.25;1.80;;;18.00;99.90;;;;;;5065560;28;20298;-79
2023/03/30 02:57:19;;;;;;;6.00;1.95;;;18.00;99.90;;;;;;5095166;28;20246;-78
2023/03/30 03:00:11;;;;;;;3.38;1.60;;;18.00;99.90;;;;;;5070241;28;20180;-75
2023/03/30 03:02:41;;;;;;;4.57;1.60;;;17.90;99.90;;;;;;5058086;28;20160;-80
2023/03/30 03:05:11;;;;;;;3.50;1.73;;;17.90;99.90;;;;;;5066950;28;20310;-80
2023/03/30 03:07:39;;;;;;;3.33;1.30;;;17.80;99.90;;;;;;5064675;28;20169;-79
2023/03/30 03:10:08;;;;;;;3.58;1.73;;;17.80;99.90;;;;;;5094130;28;20185;-79
2023/03/30 03:12:34;;;;;;;2.25;1.50;;;17.70;99.90;;;;;;5092343;28;20212;-75
2023/03/30 03:15:04;;;;;;;6.10;1.80;;;17.70;99.90;;;;;;5102800;27;20172;-80
2023/03/30 03:17:35;;;;;;;5.97;1.92;;;17.60;99.90;;;;;;5097795;28;20179;-76
2023/03/30 03:20:03;;;;;;;5.65;1.75;;;17.60;99.90;;;;;;5097746;28;20199;-77
2023/03/30 03:22:30;;;;;;;3.50;1.65;;;17.50;99.90;;;;;;5097791;28;20171;-80
2023/03/30 03:24:56;;;;;;;5.53;1.80;;;17.50;99.90;;;;;;5097459;28;20252;-79
2023/03/30 03:27:26;;;;;;;3.63;1.63;;;17.40;99.90;;;;;;5089167;28;20219;-77
2023/03/30 03:29:54;;;;;;;3.75;1.80;;;17.40;99.90;;;;;;5073632;28;20188;-78
2023/03/30 03:32:19;;;;;;;3.85;1.77;;;17.40;99.90;;;;;;5090415;28;20177;-79
2023/03/30 03:34:45;;;;;;;4.30;1.63;;;17.30;99.90;;;;;;5098161;28;20550;-80
2023/03/30 03:37:13;;;;;;;4.90;2.00;;;17.30;99.90;;;;;;5074289;28;20188;-80
2023/03/30 03:39:41;;;;;;;3.35;1.98;;;17.20;99.90;;;;;;5093907;28;20197;-81
2023/03/30 03:42:09;;;;;;;7.38;2.00;;;17.20;99.90;;;;;;5056713;28;20199;-80
2023/03/30 03:44:36;;;;;;;3.95;2.10;;;17.20;99.90;;;;;;5070437;28;20181;-77
2023/03/30 03:47:02;;;;;;;5.28;1.60;;;17.20;99.90;;;;;;5057479;28;20207;-79
2023/03/30 03:49:27;;;;;;;5.85;1.73;;;17.10;99.90;;;;;;5056962;28;20174;-81
2023/03/30 03:51:53;;;;;;;5.75;1.88;;;17.10;99.90;;;;;;5057061;28;20181;-77
2023/03/30 03:54:19;;;;;;;5.55;1.80;;;17.10;99.90;;;;;;5091946;28;20244;-80
2023/03/30 03:56:50;;;;;;;4.53;1.70;;;17.10;99.90;;;;;;5076460;28;20179;-78
2023/03/30 03:59:16;;;;;;;5.50;1.73;;;17.10;99.90;;;;;;5076804;28;20188;-81
2023/03/30 04:01:44;;;;;;;4.13;2.28;;;17.10;99.90;;;;;;5072804;28;20189;-80
2023/03/30 04:04:10;;;;;;;3.95;1.90;;;17.00;99.90;;;;;;5060750;28;20188;-81
2023/03/30 04:06:36;;;;;;;5.05;2.30;;;17.00;99.90;;;;;;5073957;28;20181;-80
2023/03/30 04:09:04;;;;;;;4.07;1.90;;;17.00;99.90;;;;;;5060182;28;20373;-80
2023/03/30 04:11:30;;;;;;;3.30;1.67;;;16.90;99.90;;;;;;5075982;28;20234;-80
2023/03/30 04:14:00;;;;;;;5.43;2.13;;;16.90;99.90;;;;;;5056627;28;20227;-78
2023/03/30 04:16:27;;;;;;;3.92;1.80;;;16.90;99.90;;;;;;5057396;28;20177;-80
2023/03/30 04:18:56;;;;;;;4.22;1.85;;;16.90;99.90;;;;;;5058629;28;20268;-82
2023/03/30 04:21:22;;;;;;;5.40;1.70;;;16.80;99.90;;;;;;5072739;28;20211;-81
2023/03/30 04:23:50;;;;;;;6.53;2.28;;;16.80;99.90;;;;;;5076179;28;20237;-79
2023/03/30 04:26:16;;;;;;;4.72;1.73;;;16.80;99.90;;;;;;5071676;28;20276;-79
2023/03/30 04:28:42;;;;;;;4.95;1.80;;;16.80;99.90;;;;;;5088637;28;20343;-77
2023/03/30 04:31:09;;;;;;;5.25;2.28;;;16.80;99.90;;;;;;5058915;28;20192;-80
2023/03/30 04:33:44;;;;;;;5.28;2.10;;;16.70;99.90;;;;;;5069596;28;20280;-81
2023/03/30 04:36:16;;;;;;;7.50;1.92;;;16.80;99.90;;;;;;5069917;28;20200;-77
2023/03/30 04:38:57;;;;;;;5.13;2.15;;;16.80;99.90;;;;;;5074546;28;20173;-79
2023/03/30 04:41:28;;;;;;;4.88;2.40;;;16.80;99.90;;;;;;5055377;28;20188;-79
2023/03/30 04:43:54;;;;;;;4.13;1.88;;;16.70;99.90;;;;;;5075511;28;20247;-78
2023/03/30 04:46:20;;;;;;;6.75;2.40;;;16.80;99.90;;;;;;5075892;28;20169;-79
2023/03/30 04:48:48;;;;;;;4.28;1.95;;;16.80;99.90;;;;;;5075001;28;20172;-80
2023/03/30 04:51:16;;;;;;;6.68;2.42;;;16.70;99.90;;;;;;5075431;28;20172;-79
2023/03/30 04:53:47;;;;;;;5.43;2.30;;;16.80;99.90;;;;;;5075259;28;20443;-79
2023/03/30 04:56:15;;;;;;;4.60;2.10;;;16.80;99.90;;;;;;5075120;28;20258;-78
2023/03/30 04:58:41;;;;;;;6.38;2.05;;;16.80;99.90;;;;;;5075376;28;20181;-82
2023/03/30 05:01:07;;;;;;;6.13;2.13;;;16.80;99.90;;;;;;5071790;28;20173;-81
2023/03/30 05:03:35;;;;;;;5.43;2.25;;;16.80;99.90;;;;;;5061016;28;20207;-79
2023/03/30 05:06:01;;;;;;;8.77;2.60;;;16.80;99.90;;;;;;5068154;28;20181;-80
2023/03/30 05:08:31;;;;;;;4.55;2.10;;;16.90;99.90;;;;;;5072010;28;20192;-80
2023/03/30 05:11:03;;;;;;;5.25;2.25;;;16.90;99.90;;;;;;5102455;28;20185;-75
2023/03/30 05:13:34;;;;;;;6.35;1.92;;;16.90;99.90;;;;;;5070114;28;20223;-79
2023/03/30 05:16:00;;;;;;;6.22;2.00;;;16.90;99.90;;;;;;5063797;28;20258;-79
2023/03/30 05:18:26;;;;;;;5.07;2.30;;;16.90;99.90;;;;;;5059832;28;20169;-74
2023/03/30 05:20:58;;;;;;;6.38;2.08;;;16.90;99.90;;;;;;5088537;28;20194;-66
2023/03/30 05:23:24;;;;;;;6.80;2.22;;;16.90;99.90;;;;;;5086350;28;20169;-78
2023/03/30 05:25:50;;;;;;;5.13;2.35;;;16.90;99.90;;;;;;5083123;28;20489;-80
2023/03/30 05:28:18;;;;;;;6.32;2.30;;;16.90;99.90;;;;;;5095381;28;20203;-78
2023/03/30 05:30:45;;;;;;;5.25;2.17;;;16.90;99.90;;;;;;5065321;28;20185;-75
2023/03/30 05:33:11;;;;;;;5.72;2.42;;;16.90;99.90;;;;;;5053848;28;20204;-76
2023/03/30 05:35:39;;;;;;;6.00;2.40;;;16.90;99.90;;;;;;5053961;28;20193;-78
2023/03/30 05:38:06;;;;;;;4.30;2.15;;;16.90;99.90;;;;;;5061829;28;20205;-79
2023/03/30 05:40:31;;;;;;;4.75;2.05;;;16.90;99.90;;;;;;5074337;28;20203;-74
2023/03/30 05:43:02;;;;;;;5.00;2.15;;;16.90;99.90;;;;;;5074208;28;20271;-75
2023/03/30 05:45:30;;;;;;;5.32;2.00;;;16.90;99.90;;;;;;5074205;28;20173;-77
2023/03/30 05:47:58;;;;;;;4.85;2.10;;;16.90;99.90;;;;;;5074105;28;20200;-80
2023/03/30 05:50:24;;;;;;;6.03;2.40;;;16.90;99.90;;;;;;5074686;28;20200;-66
2023/03/30 05:52:49;;;;;;;4.28;2.05;;;16.90;99.90;;;;;;5073738;28;20219;-66
2023/03/30 05:55:15;;;;;;;6.50;2.15;;;16.90;99.90;;;;;;5074097;28;20172;-66
2023/03/30 05:57:41;;;;;;;3.97;2.00;;;16.90;99.90;;;;;;5074061;28;20222;-66
2023/03/30 06:00:09;;;;;;;5.90;1.95;;;16.90;99.90;;;;;;5073930;28;20195;-67
2023/03/30 06:02:34;;;;;;;4.68;1.98;;;16.90;99.90;;;;;;5073917;28;20230;-65
2023/03/30 06:05:00;;;;;;;5.63;1.75;;;16.90;99.90;;;;;;5073748;28;20180;-67
2023/03/30 06:07:26;;;;;;;3.92;1.92;;;16.90;99.90;;;;;;5073809;28;20172;-65
2023/03/30 06:09:52;;;;;;;5.20;2.17;;;16.90;99.90;;;;;;5073553;28;20169;-65
2023/03/30 06:12:18;;;;;;;3.65;1.77;;;16.90;99.90;;;;;;5073696;28;20283;-65
2023/03/30 06:14:44;;;;;;;4.55;2.15;;;16.90;99.90;;;;;;5073558;28;20276;-64
2023/03/30 06:17:14;;;;;;;5.70;2.00;;;16.90;99.90;;;;;;5073575;28;20169;-66
2023/03/30 06:19:40;;;;;;;4.65;1.95;;;16.90;99.90;;;;;;5073293;28;20192;-65
2023/03/30 06:22:05;;;;;;;4.55;1.70;;;16.90;99.90;;;;;;5073392;28;20267;-67
2023/03/30 06:24:33;;;;;;;4.68;2.10;;;16.90;99.90;;;;;;5073678;28;20197;-65
2023/03/30 06:27:02;;;;;;;3.42;1.60;;;16.90;99.90;;;;;;5073965;28;20180;-65
2023/03/30 06:29:28;;;;;;;3.75;1.85;;;16.90;99.90;;;;;;5061034;28;20181;-66
2023/03/30 06:31:53;;;;;;;3.70;1.60;;;16.90;99.90;;;;;;5053567;28;20224;-66
2023/03/30 06:34:24;;;;;;;3.95;1.70;;;16.90;99.90;;;;;;5053401;28;20197;-67
2023/03/30 06:36:50;;;;;;;4.35;1.98;;;16.90;99.90;;;;;;5053281;28;20161;-66
2023/03/30 06:39:18;;;;;;;5.32;2.10;;;16.90;99.90;;;;;;5063439;28;20169;-66
2023/03/30 06:41:44;;;;;;;5.03;1.70;;;16.90;99.90;;;;;;5057301;28;20260;-66
2023/03/30 06:44:13;;;;;;;6.07;1.92;;;16.90;99.90;;;;;;5070431;28;20247;-67
2023/03/30 06:46:39;;;;;;;4.57;1.80;;;16.90;99.90;;;;;;5077337;28;20255;-67
2023/03/30 06:49:07;;;;;;;4.85;1.92;;;17.00;99.90;;;;;;5077452;28;20187;-67
2023/03/30 06:51:37;;;;;;;4.75;1.90;;;17.00;99.90;;;;;;5077668;28;20193;-66
2023/03/30 06:54:06;;;;;;;4.85;2.00;;;17.00;99.90;;;;;;5077642;28;20201;-66
2023/03/30 06:56:31;;;;;;;8.32;1.90;;;17.00;99.90;;;;;;5060881;28;20201;-66
2023/03/30 06:58:59;;;;;;;5.03;1.60;;;17.10;99.90;;;;;;5057389;28;20218;-67
2023/03/30 07:01:27;;;;;;;3.55;1.50;;;17.10;99.90;;;;;;5057563;28;20192;-66
2023/03/30 07:03:55;;;;;;;9.10;1.60;;;17.10;99.90;;;;;;5057382;28;20178;-66
2023/03/30 07:06:23;;;;;;;3.38;1.70;;;17.10;99.90;;;;;;5057284;28;20219;-67
2023/03/30 07:08:51;;;;;;;2.60;1.50;;;17.10;99.90;;;;;;5057399;28;20201;-66
2023/03/30 07:11:17;;;;;;;4.20;1.75;;;17.10;99.90;;;;;;5057171;28;20216;-66
2023/03/30 07:13:42;;;;;;;4.40;1.67;;;17.10;99.90;;;;;;5074482;28;20247;-66
2023/03/30 07:16:08;;;;;;;4.85;2.20;;;17.10;99.90;;;;;;5077258;28;20169;-66
2023/03/30 07:18:34;;;;;;;4.03;1.73;;;17.10;99.90;;;;;;5077231;28;20169;-66
2023/03/30 07:21:03;;;;;;;3.22;1.70;;;17.10;99.90;;;;;;5077380;28;20263;-66
2023/03/30 07:23:31;;;;;;;4.80;1.80;;;17.10;99.90;;;;;;5077272;28;20157;-66
2023/03/30 07:25:56;;;;;;;3.60;1.80;;;17.10;99.90;;;;;;5076703;28;20226;-67
2023/03/30 07:28:22;;;;;;;3.65;1.90;;;17.10;99.90;;;;;;5075562;28;20209;-66
2023/03/30 07:30:48;;;;;;;5.28;1.55;;;17.10;99.90;;;;;;5076663;28;20177;-66
2023/03/30 07:33:18;;;;;;;4.40;1.75;;;17.20;99.90;;;;;;5077053;28;20204;-66
2023/03/30 07:35:45;;;;;;;4.70;1.70;;;17.20;99.90;;;;;;5071889;28;20169;-66
2023/03/30 07:38:14;;;;;;;4.90;1.90;;;17.20;99.90;;;;;;5066002;28;20176;-67
2023/03/30 07:40:42;;;;;;;4.93;1.52;;;17.20;99.90;;;;;;5076496;28;20192;-67
2023/03/30 07:43:13;;;;;;;5.03;1.60;;;17.30;99.90;;;;;;5076425;28;20195;-66
2023/03/30 07:45:40;;;;;;;4.60;1.90;;;17.30;99.90;;;;;;5076537;28;20165;-67
2023/03/30 07:48:06;;;;;;;5.07;1.73;;;17.40;99.90;;;;;;5073031;28;20189;-66
2023/03/30 07:50:32;;;;;;;5.65;1.90;;;17.40;99.90;;;;;;5072382;28;20235;-67
2023/03/30 07:52:58;;;;;;;4.43;1.80;;;17.40;99.90;;;;;;5090312;28;20210;-66
2023/03/30 07:55:29;;;;;;;3.05;1.55;;;17.50;99.90;;;;;;5096999;28;20172;-67
2023/03/30 07:57:57;;;;;;;5.97;2.00;;;17.40;99.90;;;;;;5097146;28;20168;-67
2023/03/30 08:00:23;;;;;;;3.53;1.80;;;17.50;99.90;;;;;;5096471;28;20240;-66
2023/03/30 08:02:54;;;;;;;3.65;1.70;;;17.50;99.90;;;;;;5092619;28;20168;-66
2023/03/30 08:05:19;;;;;;;3.28;1.65;;;17.60;99.90;;;;;;5056182;28;20288;-66
2023/03/30 08:07:50;;;;;;;4.63;1.60;;;17.60;99.90;;;;;;5056327;28;20212;-65
2023/03/30 08:10:16;;;;;;;3.05;1.40;;;17.60;99.90;;;;;;5055973;28;20210;-66
2023/03/30 08:12:42;;;;;;;4.55;1.48;;;17.70;99.90;;;;;;5055774;28;20280;-66
2023/03/30 08:15:10;;;;;;;4.75;1.60;;;17.70;99.90;;;;;;5055991;28;20173;-67
2023/03/30 08:17:38;;;;;;;4.95;1.38;;;17.80;99.90;;;;;;5055877;28;20250;-66
2023/03/30 08:20:10;;;;;;;2.92;1.20;;;17.80;99.90;;;;;;5059681;28;20181;-67
2023/03/30 08:22:35;;;;;;;2.63;1.40;;;17.80;99.90;;;;;;5076197;28;20191;-66
2023/03/30 08:25:03;;;;;;;4.70;1.30;;;17.90;99.90;;;;;;5070344;28;20205;-67
2023/03/30 08:27:31;;;;;;;3.80;1.23;;;17.90;99.90;;;;;;5055792;28;20180;-67
2023/03/30 08:29:59;;;;;;;3.63;1.17;;;17.90;99.90;;;;;;5055897;28;20177;-67
2023/03/30 08:32:29;;;;;;;2.33;1.30;;;17.90;99.90;;;;;;5055662;28;20231;-67
2023/03/30 08:34:58;;;;;;;2.55;1.10;;;18.00;99.90;;;;;;5055697;28;20193;-67
2023/03/30 08:37:26;;;;;;;2.72;1.20;;;18.00;99.90;;;;;;5087288;28;20204;-67
2023/03/30 08:39:56;;;;;;;3.42;1.30;;;18.00;99.90;;;;;;5075647;28;20180;-67
2023/03/30 08:42:30;;;;;;;3.50;1.15;;;18.00;99.90;;;;;;5075371;28;20160;-66
2023/03/30 08:45:02;;;;;;;2.60;0.88;;;18.00;99.90;;;;;;5075444;28;20160;-66
2023/03/30 08:47:36;;;;;;;3.42;1.17;;;18.10;99.90;;;;;;5075346;28;20186;-66
2023/03/30 08:50:09;;;;;;;3.95;1.08;;;18.10;99.90;;;;;;5074975;28;20203;-66
2023/03/30 08:52:36;;;;;;;1.80;1.00;;;18.10;99.90;;;;;;5075368;28;20180;-67
2023/03/30 08:55:03;;;;;;;4.18;1.13;;;18.10;99.90;;;;;;5063169;28;20198;-66
2023/03/30 08:57:59;;;;;;;2.97;1.10;;;18.10;99.90;;;;;;5054987;28;20180;-66
2023/03/30 09:00:57;;;;;;;4.20;1.40;;;18.10;99.90;;;;;;5055632;28;20173;-66
2023/03/30 09:03:51;;;;;;;2.28;0.93;;;18.10;99.90;;;;;;5055370;28;20173;-68
2023/03/30 09:06:38;;;;;;;2.53;1.08;;;18.20;99.90;;;;;;5055431;28;20181;-66
2023/03/30 09:09:04;;;;;;;2.80;1.10;;;18.20;99.90;;;;;;5055050;28;20209;-66
2023/03/30 09:11:36;;;;;;;2.22;1.02;;;18.20;99.90;;;;;;5062288;28;20196;-67
2023/03/30 09:14:05;;;;;;;2.10;1.10;;;18.20;99.90;;;;;;5074893;28;20208;-67
2023/03/30 09:16:33;;;;;;;4.53;1.10;;;18.20;99.90;;;;;;5074568;28;20177;-66
2023/03/30 09:19:02;;;;;;;3.95;1.35;;;18.20;99.90;;;;;;5075065;28;20169;-66
2023/03/30 09:21:30;;;;;;;3.35;1.17;;;18.20;99.90;;;;;;5067821;28;20211;-66
2023/03/30 09:24:10;;;;;;;4.25;1.15;;;18.30;99.90;;;;;;5055202;28;20177;-65
2023/03/30 09:26:42;;;;;;;3.03;1.17;;;18.30;99.90;;;;;;5054789;28;20230;-66
2023/03/30 09:29:27;;;;;;;3.97;1.25;;;18.30;99.90;;;;;;5067292;28;20213;-66
2023/03/30 09:32:16;;;;;;;2.08;0.80;;;18.30;99.90;;;;;;5074726;28;20176;-65
2023/03/30 09:35:15;;;;;;;3.15;1.10;;;18.30;99.90;;;;;;5074749;28;20204;-66
2023/03/30 09:37:41;;;;;;;2.92;1.30;;;18.30;99.90;;;;;;5067120;28;20177;-66
2023/03/30 09:40:30;;;;;;;3.55;1.20;;;18.20;99.90;;;;;;5071003;28;20224;-66
2023/03/30 09:43:40;;;;;;;1.92;1.02;;;18.20;99.90;;;;;;5071339;28;20161;-66
2023/03/30 09:46:06;;;;;;;2.40;0.80;;;18.20;99.90;;;;;;5066605;28;20197;-66
2023/03/30 09:48:46;;;;;;;3.30;1.13;;;18.20;99.90;;;;;;5074663;28;20192;-66
2023/03/30 09:51:26;;;;;;;2.72;1.02;;;18.10;99.90;;;;;;5074827;28;20180;-66
2023/03/30 09:54:18;;;;;;;2.50;1.10;;;18.20;99.90;;;;;;5088186;28;20203;-65
2023/03/30 09:56:50;;;;;;;4.20;1.10;;;18.30;99.90;;;;;;5054923;28;20227;-66
2023/03/30 09:59:27;;;;;;;2.42;0.98;;;18.30;99.90;;;;;;5054423;28;20194;-65
2023/03/30 10:02:16;;;;;;;4.28;0.70;;;18.30;99.90;;;;;;5056603;28;20256;-65
2023/03/30 10:05:15;;;;;;;2.45;0.63;;;18.20;99.90;;;;;;5074274;28;20192;-66
2023/03/30 10:07:42;;;;;;;1.70;0.50;;;17.70;99.90;;;;;;5074339;28;20169;-68
2023/03/30 10:10:19;;;;;;;3.30;0.70;;;17.10;99.90;;;;;;5074414;28;20188;-68
2023/03/30 10:12:48;;;;;;;1.50;0.60;;;16.40;99.90;;;;;;5074251;28;20253;-68
2023/03/30 10:15:20;;;;;;;2.28;0.57;;;15.70;99.90;;;;;;5078014;28;20176;-67
2023/03/30 10:17:47;;;;;;;1.90;0.60;;;15.10;99.90;;;;;;5071017;28;20203;-67
2023/03/30 10:20:37;;;;;;;1.85;0.50;;;14.60;99.90;;;;;;5058091;28;20377;-66
2023/03/30 10:23:11;;;;;;;1.25;0.47;;;14.10;99.90;;;;;;5052635;28;20205;-66
2023/03/30 10:25:43;;;;;;;2.60;0.70;;;13.80;99.90;;;;;;5077714;28;20180;-66
2023/03/30 10:28:25;;;;;;;1.25;0.50;;;13.60;99.90;;;;;;5077206;28;20264;-66
2023/03/30 10:30:57;;;;;;;0.55;0.30;;;13.40;99.90;;;;;;5077624;28;20196;-67
2023/03/30 10:33:29;;;;;;;0.80;0.43;;;13.20;99.90;;;;;;5077447;28;20516;-66
2023/03/30 10:35:59;;;;;;;0.65;0.40;;;13.10;99.90;;;;;;5074496;28;20224;-67
2023/03/30 10:38:31;;;;;;;1.83;0.47;;;12.90;99.90;;;;;;5058293;28;20154;-67
2023/03/30 10:41:04;;;;;;;1.08;0.40;;;12.90;99.90;;;;;;5103968;28;20177;-67
2023/03/30 10:43:30;;;;;;;0.77;0.35;;;12.90;99.90;;;;;;5078427;28;20173;-67
2023/03/30 10:46:06;;;;;;;0.25;0.20;;;12.90;99.90;;;;;;5077449;28;20206;-68
2023/03/30 10:48:38;;;;;;;0.88;0.50;;;12.90;99.90;;;;;;5078056;28;20277;-67
2023/03/30 10:51:10;;;;;;;1.00;0.55;;;13.00;99.90;;;;;;5077370;28;20186;-67
2023/03/30 10:54:16;;;;;;;0.95;0.65;;;13.30;99.90;;;;;;5088003;28;20207;-67
2023/03/30 10:56:55;;;;;;;2.90;0.50;;;13.90;99.90;;;;;;5077267;28;20169;-67
2023/03/30 10:59:24;;;;;;;0.60;0.50;;;14.50;99.90;;;;;;5076953;28;20164;-66
2023/03/30 11:02:23;;;;;;;2.00;0.57;;;14.90;99.90;;;;;;5076799;28;20196;-66
2023/03/30 11:05:01;;;;;;;1.20;0.40;;;15.40;99.90;;;;;;5076833;28;20172;-66
2023/03/30 11:07:39;;;;;;;0.85;0.45;;;15.80;99.90;;;;;;5076835;28;20200;-66
2023/03/30 11:10:21;;;;;;;1.10;0.68;;;16.00;99.90;;;;;;5076447;28;20188;-66
2023/03/30 11:12:55;;;;;;;1.35;0.60;;;16.20;99.90;;;;;;5076683;28;20259;-68
2023/03/30 11:15:28;;;;;;;1.10;0.70;;;16.20;99.90;;;;;;5076952;28;20168;-67
2023/03/30 11:18:18;;;;;;;1.77;0.60;;;16.30;99.90;;;;;;5076692;28;20173;-67
2023/03/30 11:20:51;;;;;;;1.63;0.50;;;16.50;99.90;;;;;;5076273;28;20266;-66
2023/03/30 11:23:26;;;;;;;1.17;0.40;;;16.60;99.90;;;;;;5076441;28;20176;-66
2023/03/30 11:26:25;;;;;;;1.38;0.55;;;16.80;99.90;;;;;;5071480;28;20204;-67
2023/03/30 11:29:12;;;;;;;0.60;0.40;;;16.80;99.90;;;;;;5071729;28;20298;-66
2023/03/30 11:31:45;;;;;;;1.25;0.60;;;16.80;99.90;;;;;;5073401;28;20231;-65
2023/03/30 11:34:37;;;;;;;1.23;0.60;;;16.80;99.90;;;;;;5072746;28;20204;-66
2023/03/30 11:37:26;;;;;;;1.20;0.50;;;16.70;99.90;;;;;;5073231;28;20189;-67
2023/03/30 11:40:00;;;;;;;1.08;0.50;;;16.50;99.90;;;;;;5089644;28;20284;-66
2023/03/30 11:42:34;;;;;;;1.50;0.70;;;16.50;99.90;;;;;;5072820;28;20184;-66
2023/03/30 11:45:01;;;;;;;1.15;0.52;;;16.30;99.90;;;;;;5075923;28;20205;-67
2023/03/30 11:47:51;;;;;;;2.22;0.40;;;16.10;99.90;;;;;;5076164;28;20173;-66
2023/03/30 11:50:48;;;;;;;0.73;0.50;;;16.00;99.90;;;;;;5076062;28;20184;-65
2023/03/30 11:53:26;;;;;;;1.27;0.60;;;15.90;99.90;;;;;;5104317;28;20212;-66
2023/03/30 11:56:11;;;;;;;1.27;0.60;;;15.90;99.90;;;;;;5076039;28;20164;-65
2023/03/30 11:59:00;;;;;;;1.30;0.60;;;16.00;99.90;;;;;;5075671;28;20192;-66
2023/03/30 12:01:34;;;;;;;1.33;0.60;;;16.10;99.90;;;;;;5075628;28;20180;-66
2023/03/30 12:04:16;;;;;;;1.55;0.90;;;16.20;99.90;;;;;;5075795;28;20197;-65
2023/03/30 12:06:56;;;;;;;1.50;0.70;;;16.40;99.90;;;;;;5075643;28;20183;-66
2023/03/30 12:09:55;;;;;;;0.95;0.45;;;16.50;99.90;;;;;;5075662;28;20183;-66
2023/03/30 12:12:37;;;;;;;2.60;0.80;;;16.70;99.90;;;;;;5055785;28;20177;-66
2023/03/30 12:15:12;;;;;;;1.23;0.55;;;16.80;99.90;;;;;;5055710;28;20228;-65
2023/03/30 12:18:17;;;;;;;1.55;0.60;;;16.90;99.90;;;;;;5055350;28;20294;-66
2023/03/30 12:21:10;;;;;;;1.75;0.60;;;17.00;99.90;;;;;;5055722;28;20169;-67
2023/03/30 12:24:12;;;;;;;1.92;0.60;;;17.00;99.90;;;;;;5055366;28;20198;-67
2023/03/30 12:26:37;;;;;;;2.35;0.47;;;17.20;99.90;;;;;;5065775;28;20179;-67
2023/03/30 12:29:03;;;;;;;1.80;0.80;;;17.40;99.90;;;;;;5075038;28;20203;-68
2023/03/30 12:32:02;;;;;;;2.08;0.68;;;17.50;99.90;;;;;;5075737;28;20173;-68
2023/03/30 12:34:32;;;;;;;3.95;1.05;;;17.70;99.90;;;;;;5075392;28;20188;-67
2023/03/30 12:37:01;;;;;;;2.90;0.82;;;17.80;99.90;;;;;;5054835;28;20235;-67
2023/03/30 12:39:53;;;;;;;3.30;0.88;;;18.00;99.90;;;;;;5088692;28;20177;-67
2023/03/30 12:42:26;;;;;;;5.05;1.27;;;18.10;99.90;;;;;;5053786;28;20205;-68
2023/03/30 12:45:04;;;;;;;4.95;1.42;;;18.20;99.90;;;;;;5071787;28;20177;-67
2023/03/30 12:47:57;;;;;;;3.88;0.90;;;18.30;99.90;;;;;;5071281;28;20205;-66
2023/03/30 12:50:36;;;;;;;3.40;1.00;;;18.40;99.90;;;;;;5072069;28;20195;-67
2023/03/30 12:53:37;;;;;;;2.78;0.65;;;18.40;99.90;;;;;;5077874;28;20187;-66
2023/03/30 12:56:30;;;;;;;2.22;0.80;;;18.50;99.90;;;;;;5075219;28;20172;-67
2023/03/30 12:58:58;;;;;;;2.45;0.73;;;18.60;99.90;;;;;;5074897;28;20179;-67
2023/03/30 13:01:35;;;;;;;2.33;0.95;;;18.70;99.90;;;;;;5075104;28;20218;-67
2023/03/30 13:04:06;;;;;;;3.63;1.00;;;18.80;99.90;;;;;;5075081;28;20177;-67
2023/03/30 13:06:38;;;;;;;1.98;0.75;;;19.00;99.90;;;;;;5067496;28;20181;-67
2023/03/30 13:09:18;;;;;;;2.35;1.00;;;19.10;99.90;;;;;;5058561;28;20176;-67
2023/03/30 13:11:53;;;;;;;3.15;0.88;;;19.20;99.90;;;;;;5074995;28;20219;-66
2023/03/30 13:14:34;;;;;;;2.22;0.90;;;19.30;99.90;;;;;;5075225;28;20195;-65
2023/03/30 13:17:00;;;;;;;2.95;0.93;;;19.40;99.90;;;;;;5075136;28;20253;-66
2023/03/30 13:19:36;;;;;;;3.78;1.10;;;19.50;99.90;;;;;;5075355;28;20232;-66